Terminal Aerodrome Forecast
Issued by NWS Cleveland, OH

Home | Current Version | Previous Version | Text Only | Print | Product List | Glossary Off
Versions: 1 2 3 4 5 6 7 8 9 10 11 12 13 14 15 16 17 18 19 20 21 22

000
FTUS41 KCLE 021100
TAFCAK
TAF
KCAK 021130Z 0212/0312 28011KT 6SM BR SCT015 BKN035
      TEMPO 0212/0215 3SM -SN BR BKN015
     FM021500 29011KT P6SM BKN030
     FM021900 29007KT P6SM SCT035 BKN250
     FM030000 VRB03KT P6SM BKN200=

USA.gov is the U.S. government's official web portal to all federal, state and local government web resources and services.